createdAt,value
2018-03-17T00:01:03.077Z,84.22
2018-03-17T00:03:32.188Z,83.62
2018-03-17T00:06:01.075Z,83.93
2018-03-17T00:08:30.421Z,84.42
2018-03-17T00:10:59.151Z,84.97
2018-03-17T00:13:27.874Z,85.20
2018-03-17T00:15:56.559Z,85.36
2018-03-17T00:18:25.182Z,85.84
2018-03-17T00:20:53.900Z,85.47
2018-03-17T00:23:23.308Z,85.23
2018-03-17T00:25:52.001Z,85.27
2018-03-17T00:28:20.792Z,84.96
2018-03-17T00:30:49.459Z,84.66
2018-03-17T00:33:18.154Z,84.63
2018-03-17T00:35:47.107Z,85.05
2018-03-17T00:38:17.158Z,84.97
2018-03-17T00:40:45.951Z,84.94
2018-03-17T00:43:14.536Z,84.58
2018-03-17T00:45:43.189Z,84.60
2018-03-17T00:48:11.816Z,84.07
2018-03-17T00:50:40.405Z,84.41
2018-03-17T00:53:09.036Z,84.07
2018-03-17T00:55:37.644Z,84.50
2018-03-17T00:58:06.400Z,84.88
2018-03-17T01:00:35.170Z,85.36
2018-03-17T01:03:03.774Z,85.70
2018-03-17T01:05:32.298Z,85.88
2018-03-17T01:08:01.051Z,86.24
2018-03-17T01:10:30.023Z,87.06
2018-03-17T01:12:59.352Z,87.46
2018-03-17T01:15:28.809Z,87.63
2018-03-17T01:17:57.497Z,87.97
2018-03-17T01:20:26.073Z,88.07
2018-03-17T01:22:55.487Z,88.14
2018-03-17T01:25:24.172Z,88.46
2018-03-17T01:27:52.814Z,88.40
2018-03-17T01:30:21.391Z,88.41
2018-03-17T01:32:49.999Z,88.54
2018-03-17T01:35:18.586Z,88.63
2018-03-17T01:37:47.239Z,88.55
2018-03-17T01:40:17.040Z,88.42
2018-03-17T01:42:45.950Z,88.37
2018-03-17T01:45:15.065Z,88.38
2018-03-17T01:47:43.698Z,88.45
2018-03-17T01:50:12.382Z,88.53
2018-03-17T01:52:41.014Z,88.86
2018-03-17T01:55:09.602Z,89.00
2018-03-17T01:57:39.088Z,88.93
2018-03-17T02:00:07.694Z,89.18
2018-03-17T02:02:36.524Z,89.28
2018-03-17T02:05:05.324Z,89.38
2018-03-17T02:07:33.905Z,89.25
2018-03-17T02:10:03.249Z,89.16
2018-03-17T02:12:32.001Z,89.23
2018-03-17T02:15:01.054Z,89.20
2018-03-17T02:17:30.738Z,89.24
2018-03-17T02:19:59.452Z,89.03
2018-03-17T02:22:28.137Z,89.12
2018-03-17T02:24:56.793Z,89.04
2018-03-17T02:27:26.231Z,88.97
2018-03-17T02:29:54.883Z,88.90
2018-03-17T02:32:23.493Z,88.89
2018-03-17T02:34:52.146Z,88.87
2018-03-17T02:37:20.777Z,88.88
2018-03-17T02:39:49.428Z,88.86
2018-03-17T02:42:18.036Z,88.84
2018-03-17T02:44:46.610Z,88.88
2018-03-17T02:47:15.938Z,88.94
2018-03-17T02:49:45.141Z,88.94
2018-03-17T02:52:13.851Z,88.86
2018-03-17T02:54:42.394Z,88.93
2018-03-17T02:57:11.715Z,88.82
2018-03-17T02:59:40.382Z,88.81
2018-03-17T03:02:08.966Z,88.85
2018-03-17T03:04:37.551Z,88.89
2018-03-17T03:07:06.947Z,88.98
2018-03-17T03:09:35.568Z,89.05
2018-03-17T03:12:05.056Z,89.12
2018-03-17T03:14:33.678Z,89.17
2018-03-17T03:17:02.455Z,89.25
2018-03-17T03:19:31.921Z,89.17
2018-03-17T03:22:00.712Z,89.24
2018-03-17T03:24:29.205Z,89.22
2018-03-17T03:26:57.962Z,89.21
2018-03-17T03:29:27.346Z,89.20
2018-03-17T03:31:56.003Z,89.14
2018-03-17T03:34:24.618Z,88.99
2018-03-17T03:36:53.496Z,89.03
2018-03-17T03:39:22.792Z,89.05
2018-03-17T03:41:51.440Z,89.06
2018-03-17T03:44:20.880Z,89.15
2018-03-17T03:46:49.418Z,89.15
2018-03-17T03:49:18.409Z,89.19
2018-03-17T03:51:47.720Z,89.21
2018-03-17T03:54:16.465Z,89.25
2018-03-17T03:56:45.084Z,89.25
2018-03-17T03:59:13.615Z,89.27
2018-03-17T04:01:43.104Z,89.35
2018-03-17T04:04:11.797Z,89.38
2018-03-17T04:06:40.387Z,89.42
2018-03-17T04:09:08.992Z,89.37
2018-03-17T04:11:37.552Z,89.33
2018-03-17T04:14:06.948Z,89.28
2018-03-17T04:16:35.547Z,89.26
2018-03-17T04:19:04.090Z,89.39
2018-03-17T04:21:33.811Z,89.50
2018-03-17T04:24:02.981Z,89.49
2018-03-17T04:26:31.897Z,89.54
2018-03-17T04:29:00.583Z,89.62
2018-03-17T04:31:29.294Z,89.70
2018-03-17T04:33:58.010Z,89.71
2018-03-17T04:36:26.633Z,89.77
2018-03-17T04:38:55.329Z,89.83
2018-03-17T04:41:23.901Z,90.01
2018-03-17T04:43:53.276Z,90.21
2018-03-17T04:46:22.004Z,90.33
2018-03-17T04:48:50.636Z,90.32
2018-03-17T04:51:20.152Z,90.43
2018-03-17T04:53:50.415Z,90.49
2018-03-17T04:56:19.648Z,90.57
2018-03-17T04:58:48.304Z,90.62
2018-03-17T05:01:16.951Z,90.71
2018-03-17T05:03:45.503Z,90.74
2018-03-17T05:06:14.096Z,90.75
2018-03-17T05:08:42.868Z,90.79
2018-03-17T05:11:11.555Z,90.85
2018-03-17T05:13:40.964Z,90.89
2018-03-17T05:16:09.654Z,90.89
2018-03-17T05:18:38.247Z,90.96
2018-03-17T05:21:06.949Z,91.04
2018-03-17T05:23:35.655Z,90.93
2018-03-17T05:26:04.455Z,90.92
2018-03-17T05:28:33.684Z,90.96
2018-03-17T05:31:02.552Z,90.99
2018-03-17T05:33:31.416Z,90.96
2018-03-17T05:35:59.925Z,90.90
2018-03-17T05:38:29.467Z,90.94
2018-03-17T05:40:58.213Z,90.96
2018-03-17T05:43:26.804Z,91.03
2018-03-17T05:45:56.196Z,91.13
2018-03-17T05:48:24.781Z,90.93
2018-03-17T05:50:53.405Z,90.83
2018-03-17T05:53:22.048Z,90.85
2018-03-17T05:55:51.413Z,90.87
2018-03-17T05:58:21.039Z,90.94
2018-03-17T06:00:50.147Z,90.95
2018-03-17T06:03:19.016Z,90.81
2018-03-17T06:05:48.518Z,90.80
2018-03-17T06:08:17.134Z,90.84
2018-03-17T06:10:46.620Z,90.99
2018-03-17T06:13:15.255Z,91.12
2018-03-17T06:15:43.845Z,91.19
2018-03-17T06:18:12.590Z,91.25
2018-03-17T06:20:42.078Z,91.27
2018-03-17T06:23:10.701Z,91.31
2018-03-17T06:25:39.329Z,91.31
2018-03-17T06:28:08.136Z,91.24
2018-03-17T06:30:38.226Z,91.12
2018-03-17T06:33:07.052Z,91.08
2018-03-17T06:35:35.736Z,90.95
2018-03-17T06:38:04.423Z,90.91
2018-03-17T06:40:33.085Z,91.00
2018-03-17T06:43:02.490Z,90.88
2018-03-17T06:45:31.131Z,90.96
2018-03-17T06:47:59.771Z,90.78
2018-03-17T06:50:28.399Z,90.72
2018-03-17T06:52:58.042Z,90.47
2018-03-17T06:55:26.764Z,90.18
2018-03-17T06:57:55.608Z,89.99
2018-03-17T07:00:25.477Z,90.10
2018-03-17T07:02:55.935Z,89.86
2018-03-17T07:05:25.406Z,89.86
2018-03-17T07:07:54.853Z,89.45
2018-03-17T07:10:23.619Z,89.74
2018-03-17T07:12:52.270Z,89.32
2018-03-17T07:15:20.872Z,88.64
2018-03-17T07:17:49.496Z,88.82
2018-03-17T07:20:18.333Z,87.45
2018-03-17T07:22:46.945Z,87.45
2018-03-17T07:25:15.699Z,86.80
2018-03-17T07:27:44.387Z,86.91
2018-03-17T07:30:13.850Z,86.29
2018-03-17T07:32:43.086Z,83.91
2018-03-17T07:35:12.798Z,83.65
2018-03-17T07:37:41.496Z,84.08
2018-03-17T07:40:10.337Z,83.85
2018-03-17T07:42:38.939Z,83.83
2018-03-17T07:45:07.547Z,83.75
2018-03-17T07:47:36.148Z,82.09
2018-03-17T07:50:04.868Z,82.30
2018-03-17T07:52:33.443Z,81.03
2018-03-17T07:55:02.160Z,80.17
2018-03-17T07:57:30.722Z,79.82
2018-03-17T08:00:00.318Z,78.88
2018-03-17T08:02:30.885Z,77.70
2018-03-17T08:05:00.185Z,77.40
2018-03-17T08:07:29.225Z,76.13
2018-03-17T08:09:58.631Z,76.67
2018-03-17T08:12:27.329Z,77.32
2018-03-17T08:14:56.390Z,77.84
2018-03-17T08:17:25.124Z,77.66
2018-03-17T08:19:53.968Z,77.54
2018-03-17T08:22:24.368Z,77.54
2018-03-17T08:24:54.839Z,76.58
2018-03-17T08:27:23.537Z,75.99
2018-03-17T08:29:52.385Z,76.40
2018-03-17T08:32:21.960Z,75.47
2018-03-17T08:34:51.654Z,74.68
2018-03-17T08:37:21.002Z,74.29
2018-03-17T08:39:49.733Z,72.93
2018-03-17T08:42:18.356Z,69.80
2018-03-17T08:44:47.051Z,67.87
2018-03-17T08:47:15.781Z,65.91
2018-03-17T08:49:44.455Z,62.61
2018-03-17T08:52:13.160Z,57.95
2018-03-17T08:54:41.828Z,55.07
2018-03-17T08:57:11.899Z,52.12
2018-03-17T08:59:40.490Z,52.11
2018-03-17T09:02:09.457Z,50.01
2018-03-17T09:04:39.482Z,49.71
2018-03-17T09:07:08.204Z,51.48
2018-03-17T09:09:36.875Z,49.27
2018-03-17T09:12:05.447Z,49.38
2018-03-17T09:14:34.907Z,49.78
2018-03-17T09:17:03.569Z,49.26
2018-03-17T09:19:32.915Z,56.04
2018-03-17T09:22:02.366Z,55.63
2018-03-17T09:24:31.525Z,52.38
2018-03-17T09:27:00.904Z,51.43
2018-03-17T09:29:29.543Z,49.64
2018-03-17T09:31:58.634Z,49.48
2018-03-17T09:34:27.578Z,52.25
2018-03-17T09:36:58.963Z,55.14
2018-03-17T09:39:27.615Z,56.99
2018-03-17T09:41:56.307Z,59.19
2018-03-17T09:44:26.328Z,59.51
2018-03-17T09:46:55.720Z,58.13
2018-03-17T09:49:24.425Z,53.15
2018-03-17T09:51:54.110Z,48.33
2018-03-17T09:54:22.834Z,46.24
2018-03-17T09:56:51.523Z,45.49
2018-03-17T09:59:20.150Z,43.76
2018-03-17T10:01:49.478Z,41.41
2018-03-17T10:04:18.802Z,40.02
2018-03-17T10:06:48.395Z,38.55
2018-03-17T10:09:17.093Z,39.33
2018-03-17T10:11:45.771Z,37.07
2018-03-17T10:14:14.712Z,38.53
2018-03-17T10:16:43.819Z,39.46
2018-03-17T10:19:13.303Z,41.94
2018-03-17T10:21:42.104Z,39.10
2018-03-17T10:24:10.838Z,41.93
2018-03-17T10:26:39.549Z,42.61
2018-03-17T10:29:08.199Z,41.40
2018-03-17T10:31:36.990Z,42.89
2018-03-17T10:34:07.096Z,45.77
2018-03-17T10:36:36.132Z,50.70
2018-03-17T10:39:04.970Z,51.44
2018-03-17T10:41:33.578Z,51.37
2018-03-17T10:44:02.287Z,47.73
2018-03-17T10:46:31.352Z,47.90
2018-03-17T10:49:00.074Z,48.87
2018-03-17T10:51:28.854Z,49.32
2018-03-17T10:53:57.520Z,48.17
2018-03-17T10:56:26.306Z,44.82
2018-03-17T10:58:55.863Z,39.48
2018-03-17T11:01:26.872Z,38.78
2018-03-17T11:03:56.226Z,40.76
2018-03-17T11:06:26.234Z,41.62
2018-03-17T11:08:54.912Z,43.42
2018-03-17T11:11:23.694Z,41.17
2018-03-17T11:13:52.794Z,41.28
2018-03-17T11:16:22.333Z,41.73
2018-03-17T11:18:51.173Z,44.14
2018-03-17T11:21:19.865Z,45.80
2018-03-17T11:23:49.080Z,47.50
2018-03-17T11:26:17.833Z,49.38
2018-03-17T11:28:46.532Z,50.32
2018-03-17T11:31:15.264Z,50.19
2018-03-17T11:33:44.347Z,51.59
2018-03-17T11:36:13.659Z,51.42
2018-03-17T11:38:42.581Z,51.74
2018-03-17T11:41:11.385Z,48.86
2018-03-17T11:43:40.094Z,49.89
2018-03-17T11:46:09.213Z,52.43
2018-03-17T11:48:37.911Z,54.71
2018-03-17T11:51:06.779Z,54.44
2018-03-17T11:53:36.390Z,54.14
2018-03-17T11:56:05.262Z,54.05
2018-03-17T11:58:34.139Z,51.39
2018-03-17T12:01:03.819Z,53.12
2018-03-17T12:03:32.732Z,51.55
2018-03-17T12:06:02.090Z,52.82
2018-03-17T12:08:33.332Z,53.43
2018-03-17T12:11:02.065Z,54.36
2018-03-17T12:13:31.599Z,54.48
2018-03-17T12:16:01.121Z,54.27
2018-03-17T12:18:29.766Z,53.72
2018-03-17T12:20:58.422Z,53.01
2018-03-17T12:23:27.224Z,50.83
2018-03-17T12:25:55.928Z,49.47
2018-03-17T12:28:24.647Z,48.27
2018-03-17T12:30:53.838Z,48.92
2018-03-17T12:33:22.625Z,45.75
2018-03-17T12:35:51.948Z,45.08
2018-03-17T12:38:21.497Z,45.77
2018-03-17T12:40:50.204Z,46.36
2018-03-17T12:43:18.831Z,45.02
2018-03-17T12:45:47.433Z,43.11
2018-03-17T12:48:16.122Z,46.27
2018-03-17T12:50:44.821Z,44.34
2018-03-17T12:53:13.603Z,45.77
2018-03-17T12:55:42.578Z,46.13
2018-03-17T12:58:12.267Z,48.75
2018-03-17T13:00:41.119Z,50.97
2018-03-17T13:03:10.008Z,54.68
2018-03-17T13:05:39.100Z,59.41
2018-03-17T13:08:09.139Z,58.79
2018-03-17T13:10:38.363Z,57.92
2018-03-17T13:13:07.129Z,59.12
2018-03-17T13:15:36.857Z,61.07
2018-03-17T13:18:05.900Z,60.29
2018-03-17T13:20:34.816Z,58.61
2018-03-17T13:23:17.440Z,57.32
2018-03-17T13:25:46.761Z,55.79
2018-03-17T13:28:29.902Z,57.91
2018-03-17T13:30:58.822Z,53.50
2018-03-17T13:33:27.606Z,55.00
2018-03-17T13:36:15.082Z,54.96
2018-03-17T13:38:43.771Z,50.99
2018-03-17T13:41:13.434Z,51.85
2018-03-17T13:43:42.660Z,50.56
2018-03-17T13:46:12.343Z,49.76
2018-03-17T13:48:41.591Z,50.61
2018-03-17T13:51:11.760Z,50.03
2018-03-17T13:53:41.405Z,49.80
2018-03-17T13:56:10.257Z,47.53
2018-03-17T13:58:40.013Z,46.89
2018-03-17T14:01:10.976Z,48.53
2018-03-17T14:03:41.226Z,48.23
2018-03-17T14:06:10.402Z,46.32
2018-03-17T14:08:40.120Z,45.74
2018-03-17T14:11:09.184Z,47.50
2018-03-17T14:13:39.429Z,45.59
2018-03-17T14:16:09.360Z,44.16
2018-03-17T14:18:38.761Z,45.11
2018-03-17T14:21:08.078Z,42.67
2018-03-17T14:23:36.977Z,40.84
2018-03-17T14:26:06.459Z,41.54
2018-03-17T14:28:35.736Z,39.30
2018-03-17T14:31:05.548Z,38.20
2018-03-17T14:33:34.414Z,36.36
2018-03-17T14:36:03.332Z,37.41
2018-03-17T14:38:34.203Z,36.59
2018-03-17T14:41:04.070Z,38.36
2018-03-17T14:43:32.736Z,39.92
2018-03-17T14:46:01.846Z,39.12
2018-03-17T14:48:30.691Z,36.61
2018-03-17T14:51:00.033Z,37.57
2018-03-17T14:53:28.730Z,34.62
2018-03-17T14:55:57.706Z,35.89
2018-03-17T14:58:27.458Z,36.02
2018-03-17T15:00:56.444Z,33.77
2018-03-17T15:03:25.126Z,35.93
2018-03-17T15:05:54.118Z,34.58
2018-03-17T15:08:22.859Z,34.18
2018-03-17T15:10:52.010Z,34.97
2018-03-17T15:13:21.305Z,33.26
2018-03-17T15:15:50.215Z,34.08
2018-03-17T15:18:20.135Z,35.90
2018-03-17T15:20:49.588Z,38.99
2018-03-17T15:23:18.396Z,39.27
2018-03-17T15:25:47.307Z,39.22
2018-03-17T15:28:16.644Z,39.50
2018-03-17T15:30:46.867Z,40.44
2018-03-17T15:33:15.841Z,37.63
2018-03-17T15:35:45.489Z,37.22
2018-03-17T15:38:15.128Z,36.21
2018-03-17T15:40:45.363Z,36.11
2018-03-17T15:43:14.859Z,37.19
2018-03-17T15:45:44.753Z,37.51
2018-03-17T15:48:13.544Z,38.68
2018-03-17T15:50:42.351Z,38.48
2018-03-17T15:53:10.948Z,37.07
2018-03-17T15:55:40.397Z,37.98
2018-03-17T15:58:09.610Z,37.83
2018-03-17T16:00:38.533Z,38.24
2018-03-17T16:03:07.158Z,38.80
2018-03-17T16:05:36.052Z,40.14
2018-03-17T16:08:04.834Z,39.11
2018-03-17T16:10:34.317Z,39.67
2018-03-17T16:13:03.101Z,38.72
2018-03-17T16:15:31.839Z,39.10
2018-03-17T16:18:00.552Z,39.97
2018-03-17T16:20:29.257Z,42.24
2018-03-17T16:22:58.729Z,43.23
2018-03-17T16:25:27.363Z,43.59
2018-03-17T16:27:56.304Z,43.14
2018-03-17T16:30:26.204Z,43.75
2018-03-17T16:32:55.539Z,43.32
2018-03-17T16:35:24.653Z,42.77
2018-03-17T16:37:53.875Z,44.49
2018-03-17T16:40:22.703Z,46.15
2018-03-17T16:42:51.654Z,46.50
2018-03-17T16:45:21.403Z,47.89
2018-03-17T16:47:50.206Z,49.00
2018-03-17T16:50:18.847Z,48.35
2018-03-17T16:52:47.624Z,48.96
2018-03-17T16:55:16.358Z,50.07
2018-03-17T16:57:45.213Z,50.51
2018-03-17T17:00:15.277Z,50.93
2018-03-17T17:02:44.728Z,50.47
2018-03-17T17:05:13.491Z,51.57
2018-03-17T17:07:42.307Z,51.68
2018-03-17T17:10:11.203Z,53.02
2018-03-17T17:12:40.249Z,55.32
2018-03-17T17:15:08.906Z,56.58
2018-03-17T17:17:37.778Z,57.69
2018-03-17T17:20:06.761Z,59.03
2018-03-17T17:22:36.461Z,59.55
2018-03-17T17:25:06.261Z,60.55
2018-03-17T17:27:35.076Z,61.68
2018-03-17T17:30:04.794Z,62.00
2018-03-17T17:32:34.350Z,62.22
2018-03-17T17:35:03.163Z,62.85
2018-03-17T17:37:31.873Z,62.90
2018-03-17T17:40:00.780Z,62.99
2018-03-17T17:42:29.485Z,62.50
2018-03-17T17:44:58.540Z,62.65
2018-03-17T17:47:27.512Z,62.46
2018-03-17T17:49:56.182Z,62.57
2018-03-17T17:52:24.979Z,62.81
2018-03-17T17:54:53.706Z,62.42
2018-03-17T17:57:22.479Z,63.31
2018-03-17T17:59:52.260Z,63.66
2018-03-17T18:02:21.606Z,64.07
2018-03-17T18:04:51.754Z,65.01
2018-03-17T18:07:20.822Z,65.17
2018-03-17T18:09:49.691Z,64.82
2018-03-17T18:12:18.568Z,64.81
2018-03-17T18:14:48.043Z,65.43
2018-03-17T18:17:17.847Z,66.18
2018-03-17T18:19:46.959Z,66.15
2018-03-17T18:22:16.074Z,65.58
2018-03-17T18:24:45.723Z,66.33
2018-03-17T18:27:14.836Z,65.72
2018-03-17T18:29:44.163Z,65.56
2018-03-17T18:32:14.674Z,65.68
2018-03-17T18:34:44.174Z,65.34
2018-03-17T18:37:13.712Z,65.00
2018-03-17T18:39:42.601Z,64.73
2018-03-17T18:42:11.533Z,65.46
2018-03-17T18:44:40.368Z,66.00
2018-03-17T18:47:09.299Z,66.44
2018-03-17T18:49:39.092Z,67.20
2018-03-17T18:52:07.895Z,66.85
2018-03-17T18:54:36.738Z,66.40
2018-03-17T18:57:05.552Z,66.19
2018-03-17T18:59:34.664Z,65.67
2018-03-17T19:02:03.939Z,66.59
2018-03-17T19:04:33.420Z,66.36
2018-03-17T19:07:02.377Z,67.58
2018-03-17T19:09:31.121Z,67.67
2018-03-17T19:11:59.914Z,68.08
2018-03-17T19:14:28.592Z,68.66
2018-03-17T19:16:58.354Z,69.40
2018-03-17T19:19:27.752Z,69.23
2018-03-17T19:21:57.842Z,69.49
2018-03-17T19:24:26.562Z,69.07
2018-03-17T19:26:56.436Z,69.46
2018-03-17T19:29:25.249Z,69.88
2018-03-17T19:31:54.437Z,70.00
2018-03-17T19:34:23.570Z,70.57
2018-03-17T19:36:52.329Z,70.61
2018-03-17T19:39:22.166Z,71.97
2018-03-17T19:41:51.153Z,72.79
2018-03-17T19:44:20.768Z,73.97
2018-03-17T19:46:50.418Z,74.38
2018-03-17T19:49:19.248Z,75.10
2018-03-17T19:51:48.367Z,76.26
2018-03-17T19:54:17.281Z,76.56
2018-03-17T19:56:46.301Z,76.67
2018-03-17T19:59:15.291Z,76.90
2018-03-17T20:01:45.767Z,77.27
2018-03-17T20:04:18.440Z,77.76
2018-03-17T20:06:47.355Z,77.27
2018-03-17T20:09:16.817Z,77.16
2018-03-17T20:11:45.597Z,76.58
2018-03-17T20:14:14.394Z,76.75
2018-03-17T20:16:43.615Z,76.73
2018-03-17T20:19:12.661Z,76.69
2018-03-17T20:21:41.489Z,77.41
2018-03-17T20:24:10.543Z,78.03
2018-03-17T20:26:39.282Z,78.58
2018-03-17T20:29:09.699Z,78.85
2018-03-17T20:31:39.810Z,79.33
2018-03-17T20:34:09.883Z,79.61
2018-03-17T20:36:38.802Z,79.48
2018-03-17T20:39:08.675Z,79.73
2018-03-17T20:41:38.236Z,80.02
2018-03-17T20:44:07.459Z,80.43
2018-03-17T20:50:12.210Z,80.95
2018-03-17T20:52:41.810Z,81.01
2018-03-17T20:55:10.564Z,81.16
2018-03-17T20:57:40.174Z,81.47
2018-03-17T21:00:10.190Z,81.95
2018-03-17T21:02:40.286Z,82.40
2018-03-17T21:05:09.280Z,82.68
2018-03-17T21:07:39.104Z,82.57
2018-03-17T21:10:08.207Z,82.79
2018-03-17T21:12:36.912Z,82.51
2018-03-17T21:15:05.762Z,82.54
2018-03-17T21:17:35.160Z,82.90
2018-03-17T21:20:03.895Z,82.96
2018-03-17T21:22:33.425Z,82.61
2018-03-17T21:25:02.228Z,82.75
2018-03-17T21:27:32.175Z,82.97
2018-03-17T21:30:01.371Z,83.59
2018-03-17T21:32:32.112Z,83.92
2018-03-17T21:35:00.956Z,83.62
2018-03-17T21:37:29.968Z,83.07
2018-03-17T21:39:59.442Z,83.03
2018-03-17T21:42:28.313Z,83.62
2018-03-17T21:44:57.084Z,84.01
2018-03-17T21:47:25.831Z,84.34
2018-03-17T21:49:54.555Z,83.85
2018-03-17T21:52:23.365Z,84.36
2018-03-17T21:54:52.097Z,84.51
2018-03-17T21:57:20.778Z,84.62
2018-03-17T21:59:49.499Z,84.60
2018-03-17T22:02:18.777Z,84.88
2018-03-17T22:04:49.028Z,85.27
2018-03-17T22:07:17.715Z,85.27
2018-03-17T22:09:46.383Z,85.05
2018-03-17T22:12:15.849Z,85.01
2018-03-17T22:14:45.214Z,84.71
2018-03-17T22:17:15.665Z,84.44
2018-03-17T22:19:46.584Z,84.21
2018-03-17T22:22:17.586Z,83.83
2018-03-17T22:24:46.324Z,83.68
2018-03-17T22:27:15.299Z,83.22
2018-03-17T22:29:44.600Z,83.06
2018-03-17T22:32:13.583Z,83.11
2018-03-17T22:34:42.172Z,83.08
2018-03-17T22:37:10.866Z,82.75
2018-03-17T22:39:39.690Z,82.76
2018-03-17T22:42:08.432Z,82.84
2018-03-17T22:44:37.943Z,83.66
2018-03-17T22:47:06.645Z,84.09
2018-03-17T22:49:35.673Z,85.68
2018-03-17T22:52:04.405Z,85.06
2018-03-17T22:54:33.030Z,85.51
2018-03-17T22:57:01.905Z,85.43
2018-03-17T22:59:30.993Z,84.54
2018-03-17T23:02:00.177Z,84.39
2018-03-17T23:04:29.140Z,84.51
2018-03-17T23:06:57.773Z,84.59
2018-03-17T23:09:26.482Z,84.90
2018-03-17T23:11:55.075Z,85.03
2018-03-17T23:14:24.465Z,85.02
2018-03-17T23:16:53.676Z,85.24
2018-03-17T23:19:22.556Z,85.23
2018-03-17T23:21:51.241Z,85.07
2018-03-17T23:24:19.972Z,85.46
2018-03-17T23:26:48.608Z,85.11
2018-03-17T23:29:18.205Z,84.81
2018-03-17T23:31:47.153Z,84.51
2018-03-17T23:34:17.298Z,83.75
2018-03-17T23:36:47.092Z,83.51
2018-03-17T23:39:16.111Z,83.21
2018-03-17T23:41:44.860Z,83.73
2018-03-17T23:44:13.687Z,83.96
2018-03-17T23:46:43.169Z,84.57
2018-03-17T23:49:12.039Z,84.34
2018-03-17T23:51:40.839Z,84.18
2018-03-17T23:54:10.301Z,83.93
2018-03-17T23:56:39.031Z,84.08
2018-03-17T23:59:07.842Z,84.17
